Baie Comeau — CFN6357 — position and weather

sailwx.info

Track history (hours):
 
Tides and Currents Weather Stations Pressure Air Temp Water Temp Dewpoint Dewpoint Depression Visibility Wind Speed Wind Dir Waves Ship Positions

Baie Comeau

Last reported at 2018-Jun-20 11:00 UTC. Time now 2018-Jun-21 18:14 UTC.
Position N 43°24' W 078°54'.

Length 225 m; draft 7 m.

Type: Cargo ship. MMSI: 316023808.

Wind from 190 at 5 knots

Barometer 1000.0 mb
Air temperature 18.0 ° C
Visibility: greater than 10.8 NM

Date/timePositionNaut miles runAvg speedWind from/ knotsBaromVisibWave heightAir tempDewpointWater temp
2018-Jun-20 11:00N 43°24' W 078°54'   190 / 51000.010.8 18.0
2018-Jun-13 01:05N 45°19' W 083°23'113.1
2018-Jun-13 00:59N 45°20' W 083°24'613.0
2018-Jun-13 00:30N 45°24' W 083°31'713.2
2018-Jun-13 00:00N 45°27' W 083°39'3210.1
2018-Jun-13 00:00N 45°30' W 083°42'4 7.8 090 / 22985.0 5.4 -5.5
2018-Jun-12 23:30N 45°30' W 083°47'713.2
2018-Jun-12 22:57N 45°34' W 083°57'1713.2
2018-Jun-12 21:42N 45°41' W 084°18'313.1
2018-Jun-12 21:29N 45°41' W 084°22'812.9
2018-Jun-12 20:50N 45°44' W 084°33'2312.9
2018-Jun-12 19:02N 45°50' W 085°05'212.4
2018-Jun-12 18:50N 45°49' W 085°08'410.5
2018-Jun-12 18:29N 45°45' W 085°09'612.9
2018-Jun-12 18:00N 45°40' W 085°14'712.9
2018-Jun-12 17:30N 45°35' W 085°20'613.0
2018-Jun-12 17:00N 45°30' W 085°26'712.9
2018-Jun-12 16:28N 45°24' W 085°31'612.9
2018-Jun-12 15:59N 45°20' W 085°37'107 2.1
2018-Jun-10 12:00N 43°48' W 086°54'   090 / 14990.0 15.0
Track history (hours):
 
Tides and Currents Weather Stations Pressure Air Temp Water Temp Dewpoint Dewpoint Depression Visibility Wind Speed Wind Dir Waves Ship Positions

Baie Comeau

Last reported at 2018-Jun-20 11:00 UTC. Time now 2018-Jun-21 18:14 UTC.
Position N 43°24' W 078°54'.

Length 225 m; draft 7 m.

Type: Cargo ship. MMSI: 316023808.

Wind from 190 at 5 knots

Barometer 1000.0 mb
Air temperature 18.0 ° C
Visibility: greater than 10.8 NM

Date/timePositionNaut miles runAvg speedWind from/ knotsBaromVisibWave heightAir tempDewpointWater temp
2018-Jun-20 11:00N 43°24' W 078°54'   190 / 51000.010.8 18.0
2018-Jun-13 01:05N 45°19' W 083°23'113.1
2018-Jun-13 00:59N 45°20' W 083°24'613.0
2018-Jun-13 00:30N 45°24' W 083°31'713.2
2018-Jun-13 00:00N 45°27' W 083°39'3210.1
2018-Jun-13 00:00N 45°30' W 083°42'4 7.8 090 / 22985.0 5.4 -5.5
2018-Jun-12 23:30N 45°30' W 083°47'713.2
2018-Jun-12 22:57N 45°34' W 083°57'1713.2
2018-Jun-12 21:42N 45°41' W 084°18'313.1
2018-Jun-12 21:29N 45°41' W 084°22'812.9
2018-Jun-12 20:50N 45°44' W 084°33'2312.9
2018-Jun-12 19:02N 45°50' W 085°05'212.4
2018-Jun-12 18:50N 45°49' W 085°08'410.5
2018-Jun-12 18:29N 45°45' W 085°09'612.9
2018-Jun-12 18:00N 45°40' W 085°14'712.9
2018-Jun-12 17:30N 45°35' W 085°20'613.0
2018-Jun-12 17:00N 45°30' W 085°26'712.9
2018-Jun-12 16:28N 45°24' W 085°31'612.9
2018-Jun-12 15:59N 45°20' W 085°37'107 2.1
2018-Jun-10 12:00N 43°48' W 086°54'   090 / 14990.0 15.0

Dump ship's entire track history